Terminal Aerodrome Forecast
Issued by NWS

Home | Current Version | Previous Version | Text Only | Print | Product List | Glossary On
Versions: 1 2 3 4 5 6 7 8 9 10 11 12
000
FTUS42 TJSJ 160535
TAFNCM
TAF
TNCM 160535Z 1606/1706 08012KT P6SM FEW022
     FM161500 11012KT P6SM SCT022=

USA.gov is the U.S. government's official web portal to all federal, state and local government web resources and services.